sensor_id;sensor_type;location;lat;lon;timestamp;P1;durP1;ratioP1;P2;durP2;ratioP2
78290;SDS011;67543;45.494;9.100;2023-05-07T05:21:07;2.97;;;1.30;;
78290;SDS011;67543;45.494;9.100;2023-05-07T05:23:33;4.00;;;1.67;;
78290;SDS011;67543;45.494;9.100;2023-05-07T05:25:58;2.90;;;1.50;;
78290;SDS011;67543;45.494;9.100;2023-05-07T05:28:24;2.53;;;1.33;;
78290;SDS011;67543;45.494;9.100;2023-05-07T05:30:49;2.35;;;0.82;;
78290;SDS011;67543;45.494;9.100;2023-05-07T05:33:15;2.10;;;1.38;;
78290;SDS011;67543;45.494;9.100;2023-05-07T05:35:40;1.73;;;1.10;;
78290;SDS011;67543;45.494;9.100;2023-05-07T05:38:06;2.63;;;1.63;;
78290;SDS011;67543;45.494;9.100;2023-05-07T05:40:31;1.40;;;1.00;;
78290;SDS011;67543;45.494;9.100;2023-05-07T05:42:57;1.52;;;1.05;;
78290;SDS011;67543;45.494;9.100;2023-05-07T05:45:22;1.67;;;1.30;;
78290;SDS011;67543;45.494;9.100;2023-05-07T05:47:47;3.38;;;1.42;;
78290;SDS011;67543;45.494;9.100;2023-05-07T05:50:13;2.05;;;1.20;;
78290;SDS011;67543;45.494;9.100;2023-05-07T05:52:38;1.73;;;1.33;;
78290;SDS011;67543;45.494;9.100;2023-05-07T05:55:04;2.35;;;1.20;;
78290;SDS011;67543;45.494;9.100;2023-05-07T05:57:30;2.42;;;1.50;;
78290;SDS011;67543;45.494;9.100;2023-05-07T05:59:55;1.98;;;1.63;;
78290;SDS011;67543;45.494;9.100;2023-05-07T06:02:21;2.50;;;1.20;;
78290;SDS011;67543;45.494;9.100;2023-05-07T06:04:46;3.60;;;1.52;;
78290;SDS011;67543;45.494;9.100;2023-05-07T06:07:12;2.47;;;1.67;;
78290;SDS011;67543;45.494;9.100;2023-05-07T06:09:37;3.15;;;1.58;;
78290;SDS011;67543;45.494;9.100;2023-05-07T06:12:03;6.45;;;1.60;;
78290;SDS011;67543;45.494;9.100;2023-05-07T06:14:28;2.10;;;1.50;;
78290;SDS011;67543;45.494;9.100;2023-05-07T06:16:53;1.80;;;1.40;;
78290;SDS011;67543;45.494;9.100;2023-05-07T06:19:19;2.42;;;1.40;;
78290;SDS011;67543;45.494;9.100;2023-05-07T06:21:48;2.95;;;1.90;;
78290;SDS011;67543;45.494;9.100;2023-05-07T06:24:14;3.38;;;1.67;;
78290;SDS011;67543;45.494;9.100;2023-05-07T06:26:39;2.63;;;1.58;;
78290;SDS011;67543;45.494;9.100;2023-05-07T06:29:05;2.20;;;1.27;;
78290;SDS011;67543;45.494;9.100;2023-05-07T06:31:31;1.67;;;1.35;;
78290;SDS011;67543;45.494;9.100;2023-05-07T06:33:57;3.78;;;1.98;;
78290;SDS011;67543;45.494;9.100;2023-05-07T06:36:22;2.15;;;1.75;;
78290;SDS011;67543;45.494;9.100;2023-05-07T06:38:48;2.90;;;1.67;;
78290;SDS011;67543;45.494;9.100;2023-05-07T06:41:13;3.60;;;1.95;;
78290;SDS011;67543;45.494;9.100;2023-05-07T06:43:38;1.77;;;1.50;;
78290;SDS011;67543;45.494;9.100;2023-05-07T06:46:04;2.38;;;2.05;;
78290;SDS011;67543;45.494;9.100;2023-05-07T06:48:30;2.90;;;1.67;;
78290;SDS011;67543;45.494;9.100;2023-05-07T06:50:56;1.92;;;1.73;;
78290;SDS011;67543;45.494;9.100;2023-05-07T06:53:23;2.42;;;1.85;;
78290;SDS011;67543;45.494;9.100;2023-05-07T06:55:49;2.80;;;1.70;;
78290;SDS011;67543;45.494;9.100;2023-05-07T06:58:14;2.50;;;1.73;;
78290;SDS011;67543;45.494;9.100;2023-05-07T07:00:40;3.90;;;1.90;;
78290;SDS011;67543;45.494;9.100;2023-05-07T07:03:06;2.45;;;1.85;;
78290;SDS011;67543;45.494;9.100;2023-05-07T07:05:31;2.00;;;1.80;;
78290;SDS011;67543;45.494;9.100;2023-05-07T07:07:57;5.32;;;2.00;;
78290;SDS011;67543;45.494;9.100;2023-05-07T07:10:22;3.85;;;2.13;;
78290;SDS011;67543;45.494;9.100;2023-05-07T07:12:48;2.55;;;1.80;;
78290;SDS011;67543;45.494;9.100;2023-05-07T07:15:14;2.25;;;1.55;;
78290;SDS011;67543;45.494;9.100;2023-05-07T07:17:40;2.10;;;1.60;;
78290;SDS011;67543;45.494;9.100;2023-05-07T07:20:05;2.63;;;1.92;;
78290;SDS011;67543;45.494;9.100;2023-05-07T07:22:31;2.00;;;1.80;;
78290;SDS011;67543;45.494;9.100;2023-05-07T07:24:56;2.58;;;1.50;;
78290;SDS011;67543;45.494;9.100;2023-05-07T07:27:22;2.50;;;1.90;;
78290;SDS011;67543;45.494;9.100;2023-05-07T07:29:47;3.20;;;1.88;;
78290;SDS011;67543;45.494;9.100;2023-05-07T07:32:12;3.80;;;2.00;;
78290;SDS011;67543;45.494;9.100;2023-05-07T07:34:38;2.95;;;1.90;;
78290;SDS011;67543;45.494;9.100;2023-05-07T07:37:04;3.55;;;2.33;;
78290;SDS011;67543;45.494;9.100;2023-05-07T07:39:31;2.38;;;1.88;;
78290;SDS011;67543;45.494;9.100;2023-05-07T07:41:59;2.47;;;2.28;;
78290;SDS011;67543;45.494;9.100;2023-05-07T07:44:25;2.10;;;1.90;;
78290;SDS011;67543;45.494;9.100;2023-05-07T07:46:53;3.08;;;1.77;;
78290;SDS011;67543;45.494;9.100;2023-05-07T07:49:19;3.20;;;2.10;;
78290;SDS011;67543;45.494;9.100;2023-05-07T07:51:44;3.53;;;2.10;;
78290;SDS011;67543;45.494;9.100;2023-05-07T07:54:10;2.70;;;2.33;;
78290;SDS011;67543;45.494;9.100;2023-05-07T07:56:35;2.92;;;2.47;;
78290;SDS011;67543;45.494;9.100;2023-05-07T07:59:01;4.40;;;2.40;;
78290;SDS011;67543;45.494;9.100;2023-05-07T08:01:27;2.60;;;2.10;;
78290;SDS011;67543;45.494;9.100;2023-05-07T08:03:53;3.83;;;1.80;;
78290;SDS011;67543;45.494;9.100;2023-05-07T08:06:19;4.60;;;1.67;;
78290;SDS011;67543;45.494;9.100;2023-05-07T08:08:44;3.13;;;2.20;;
78290;SDS011;67543;45.494;9.100;2023-05-07T08:11:09;3.30;;;2.03;;
78290;SDS011;67543;45.494;9.100;2023-05-07T08:13:35;3.75;;;2.33;;
78290;SDS011;67543;45.494;9.100;2023-05-07T08:16:01;2.13;;;1.92;;
78290;SDS011;67543;45.494;9.100;2023-05-07T08:18:27;2.17;;;1.85;;
78290;SDS011;67543;45.494;9.100;2023-05-07T08:20:54;2.15;;;1.70;;
78290;SDS011;67543;45.494;9.100;2023-05-07T08:23:19;2.67;;;2.13;;
78290;SDS011;67543;45.494;9.100;2023-05-07T08:25:45;2.80;;;2.20;;
78290;SDS011;67543;45.494;9.100;2023-05-07T08:28:10;2.38;;;2.08;;
78290;SDS011;67543;45.494;9.100;2023-05-07T08:30:36;2.40;;;2.10;;
78290;SDS011;67543;45.494;9.100;2023-05-07T08:33:01;2.88;;;1.90;;
78290;SDS011;67543;45.494;9.100;2023-05-07T08:35:26;2.97;;;2.00;;
78290;SDS011;67543;45.494;9.100;2023-05-07T08:37:52;2.47;;;1.80;;
78290;SDS011;67543;45.494;9.100;2023-05-07T08:40:18;4.22;;;2.15;;
78290;SDS011;67543;45.494;9.100;2023-05-07T08:42:43;3.47;;;2.13;;
78290;SDS011;67543;45.494;9.100;2023-05-07T08:45:09;4.32;;;2.80;;
78290;SDS011;67543;45.494;9.100;2023-05-07T08:47:43;3.10;;;2.60;;
78290;SDS011;67543;45.494;9.100;2023-05-07T08:50:12;5.32;;;2.85;;
78290;SDS011;67543;45.494;9.100;2023-05-07T08:52:38;5.53;;;3.00;;
78290;SDS011;67543;45.494;9.100;2023-05-07T08:55:05;2.95;;;2.60;;
78290;SDS011;67543;45.494;9.100;2023-05-07T08:57:31;3.97;;;2.78;;
78290;SDS011;67543;45.494;9.100;2023-05-07T08:59:57;3.53;;;2.80;;
78290;SDS011;67543;45.494;9.100;2023-05-07T09:02:22;4.13;;;3.17;;
78290;SDS011;67543;45.494;9.100;2023-05-07T09:04:48;3.53;;;2.72;;
78290;SDS011;67543;45.494;9.100;2023-05-07T09:07:13;4.05;;;3.20;;
78290;SDS011;67543;45.494;9.100;2023-05-07T09:09:38;3.97;;;3.30;;
78290;SDS011;67543;45.494;9.100;2023-05-07T09:12:04;3.70;;;3.22;;
78290;SDS011;67543;45.494;9.100;2023-05-07T09:14:29;3.22;;;2.90;;
78290;SDS011;67543;45.494;9.100;2023-05-07T09:16:55;4.43;;;2.65;;
78290;SDS011;67543;45.494;9.100;2023-05-07T09:19:24;4.50;;;3.20;;
78290;SDS011;67543;45.494;9.100;2023-05-07T09:21:57;3.80;;;3.10;;
78290;SDS011;67543;45.494;9.100;2023-05-07T09:24:30;4.72;;;3.10;;
78290;SDS011;67543;45.494;9.100;2023-05-07T09:27:00;9.85;;;3.03;;
78290;SDS011;67543;45.494;9.100;2023-05-07T09:29:26;4.03;;;3.10;;
78290;SDS011;67543;45.494;9.100;2023-05-07T09:31:54;3.70;;;2.70;;
78290;SDS011;67543;45.494;9.100;2023-05-07T09:34:19;3.47;;;2.65;;
78290;SDS011;67543;45.494;9.100;2023-05-07T09:36:45;4.68;;;3.00;;
78290;SDS011;67543;45.494;9.100;2023-05-07T09:39:10;4.18;;;2.67;;
78290;SDS011;67543;45.494;9.100;2023-05-07T09:41:45;2.97;;;2.65;;
78290;SDS011;67543;45.494;9.100;2023-05-07T09:44:12;4.07;;;2.30;;
78290;SDS011;67543;45.494;9.100;2023-05-07T09:46:38;2.58;;;2.28;;
78290;SDS011;67543;45.494;9.100;2023-05-07T09:49:03;3.40;;;2.10;;
78290;SDS011;67543;45.494;9.100;2023-05-07T09:51:51;2.42;;;2.22;;
78290;SDS011;67543;45.494;9.100;2023-05-07T09:54:17;2.10;;;1.80;;
78290;SDS011;67543;45.494;9.100;2023-05-07T09:56:43;3.03;;;2.60;;
78290;SDS011;67543;45.494;9.100;2023-05-07T09:59:12;2.42;;;2.20;;
78290;SDS011;67543;45.494;9.100;2023-05-07T10:01:38;2.63;;;2.42;;
78290;SDS011;67543;45.494;9.100;2023-05-07T10:04:05;3.30;;;2.33;;
78290;SDS011;67543;45.494;9.100;2023-05-07T10:06:33;4.05;;;2.30;;
78290;SDS011;67543;45.494;9.100;2023-05-07T10:08:59;2.38;;;2.00;;
78290;SDS011;67543;45.494;9.100;2023-05-07T10:11:25;4.43;;;2.30;;
78290;SDS011;67543;45.494;9.100;2023-05-07T10:13:51;3.85;;;1.85;;
78290;SDS011;67543;45.494;9.100;2023-05-07T10:16:17;2.75;;;2.22;;
78290;SDS011;67543;45.494;9.100;2023-05-07T10:18:43;3.65;;;2.20;;
78290;SDS011;67543;45.494;9.100;2023-05-07T10:21:18;2.33;;;2.13;;
78290;SDS011;67543;45.494;9.100;2023-05-07T10:23:45;3.03;;;2.22;;
78290;SDS011;67543;45.494;9.100;2023-05-07T10:26:15;2.78;;;2.47;;
78290;SDS011;67543;45.494;9.100;2023-05-07T10:28:41;2.30;;;2.08;;
78290;SDS011;67543;45.494;9.100;2023-05-07T10:31:15;3.78;;;2.65;;
78290;SDS011;67543;45.494;9.100;2023-05-07T10:33:43;3.60;;;2.35;;
78290;SDS011;67543;45.494;9.100;2023-05-07T10:36:10;3.20;;;2.60;;
78290;SDS011;67543;45.494;9.100;2023-05-07T10:38:36;14.02;;;11.13;;
78290;SDS011;67543;45.494;9.100;2023-05-07T10:41:01;9.75;;;7.68;;
78290;SDS011;67543;45.494;9.100;2023-05-07T10:43:39;5.07;;;3.83;;
78290;SDS011;67543;45.494;9.100;2023-05-07T10:46:09;3.35;;;3.03;;
78290;SDS011;67543;45.494;9.100;2023-05-07T10:48:35;4.88;;;2.70;;
78290;SDS011;67543;45.494;9.100;2023-05-07T10:51:31;3.67;;;2.50;;
78290;SDS011;67543;45.494;9.100;2023-05-07T10:56:42;2.67;;;2.40;;
78290;SDS011;67543;45.494;9.100;2023-05-07T11:01:49;2.70;;;2.38;;
78290;SDS011;67543;45.494;9.100;2023-05-07T11:04:18;2.22;;;1.80;;
78290;SDS011;67543;45.494;9.100;2023-05-07T11:15:04;2.70;;;2.45;;
78290;SDS011;67543;45.494;9.100;2023-05-07T11:17:53;3.75;;;2.33;;
78290;SDS011;67543;45.494;9.100;2023-05-07T11:21:07;5.65;;;4.38;;
78290;SDS011;67543;45.494;9.100;2023-05-07T11:26:06;2.80;;;2.53;;
78290;SDS011;67543;45.494;9.100;2023-05-07T11:28:42;4.50;;;2.60;;
78290;SDS011;67543;45.494;9.100;2023-05-07T11:31:08;3.13;;;2.40;;
78290;SDS011;67543;45.494;9.100;2023-05-07T11:33:35;3.22;;;2.60;;
78290;SDS011;67543;45.494;9.100;2023-05-07T11:36:04;3.30;;;2.15;;
78290;SDS011;67543;45.494;9.100;2023-05-07T11:38:30;2.60;;;2.40;;
78290;SDS011;67543;45.494;9.100;2023-05-07T11:40:59;3.00;;;2.15;;
78290;SDS011;67543;45.494;9.100;2023-05-07T11:43:30;2.15;;;1.95;;
78290;SDS011;67543;45.494;9.100;2023-05-07T11:46:08;2.53;;;2.33;;
78290;SDS011;67543;45.494;9.100;2023-05-07T11:48:34;2.72;;;2.40;;
78290;SDS011;67543;45.494;9.100;2023-05-07T11:53:36;2.47;;;2.10;;
78290;SDS011;67543;45.494;9.100;2023-05-07T11:56:12;2.38;;;2.17;;
78290;SDS011;67543;45.494;9.100;2023-05-07T11:58:39;3.85;;;2.65;;
78290;SDS011;67543;45.494;9.100;2023-05-07T12:01:07;3.85;;;2.45;;
78290;SDS011;67543;45.494;9.100;2023-05-07T12:03:33;2.92;;;2.25;;
78290;SDS011;67543;45.494;9.100;2023-05-07T12:05:59;2.38;;;2.00;;
78290;SDS011;67543;45.494;9.100;2023-05-07T12:08:25;2.10;;;1.80;;
78290;SDS011;67543;45.494;9.100;2023-05-07T12:10:50;2.50;;;2.30;;
78290;SDS011;67543;45.494;9.100;2023-05-07T12:13:17;6.50;;;5.70;;
78290;SDS011;67543;45.494;9.100;2023-05-07T12:15:46;9.70;;;7.00;;
78290;SDS011;67543;45.494;9.100;2023-05-07T12:18:11;4.35;;;3.67;;
78290;SDS011;67543;45.494;9.100;2023-05-07T12:20:37;2.78;;;2.50;;
78290;SDS011;67543;45.494;9.100;2023-05-07T12:23:04;2.45;;;2.00;;
78290;SDS011;67543;45.494;9.100;2023-05-07T12:25:30;2.63;;;1.90;;
78290;SDS011;67543;45.494;9.100;2023-05-07T12:27:56;2.63;;;2.03;;
78290;SDS011;67543;45.494;9.100;2023-05-07T12:30:25;2.38;;;2.03;;
78290;SDS011;67543;45.494;9.100;2023-05-07T12:32:54;2.28;;;2.00;;
78290;SDS011;67543;45.494;9.100;2023-05-07T12:35:26;2.42;;;1.88;;
78290;SDS011;67543;45.494;9.100;2023-05-07T12:37:58;2.30;;;2.10;;
78290;SDS011;67543;45.494;9.100;2023-05-07T12:40:34;3.08;;;2.20;;
78290;SDS011;67543;45.494;9.100;2023-05-07T12:43:00;2.60;;;2.13;;
78290;SDS011;67543;45.494;9.100;2023-05-07T12:45:25;3.28;;;2.30;;
78290;SDS011;67543;45.494;9.100;2023-05-07T12:47:51;2.75;;;2.55;;
78290;SDS011;67543;45.494;9.100;2023-05-07T12:50:16;3.95;;;1.83;;
78290;SDS011;67543;45.494;9.100;2023-05-07T12:52:43;4.82;;;2.47;;
78290;SDS011;67543;45.494;9.100;2023-05-07T12:55:12;2.60;;;2.10;;
78290;SDS011;67543;45.494;9.100;2023-05-07T12:57:39;2.65;;;2.45;;
78290;SDS011;67543;45.494;9.100;2023-05-07T13:00:08;3.15;;;2.28;;
78290;SDS011;67543;45.494;9.100;2023-05-07T13:02:34;2.63;;;2.28;;
78290;SDS011;67543;45.494;9.100;2023-05-07T13:05:03;2.55;;;2.35;;
78290;SDS011;67543;45.494;9.100;2023-05-07T13:07:28;2.30;;;2.10;;
78290;SDS011;67543;45.494;9.100;2023-05-07T13:09:54;2.15;;;1.38;;
78290;SDS011;67543;45.494;9.100;2023-05-07T13:12:19;3.95;;;2.35;;
78290;SDS011;67543;45.494;9.100;2023-05-07T13:14:45;3.33;;;2.20;;
78290;SDS011;67543;45.494;9.100;2023-05-07T13:17:10;2.17;;;1.92;;
78290;SDS011;67543;45.494;9.100;2023-05-07T13:19:35;2.63;;;2.30;;
78290;SDS011;67543;45.494;9.100;2023-05-07T13:22:02;6.97;;;2.30;;
78290;SDS011;67543;45.494;9.100;2023-05-07T13:24:28;2.15;;;1.95;;
78290;SDS011;67543;45.494;9.100;2023-05-07T13:26:53;5.30;;;1.90;;
78290;SDS011;67543;45.494;9.100;2023-05-07T13:29:18;2.88;;;1.70;;
78290;SDS011;67543;45.494;9.100;2023-05-07T13:31:44;3.30;;;2.13;;
78290;SDS011;67543;45.494;9.100;2023-05-07T13:34:09;3.15;;;1.52;;
78290;SDS011;67543;45.494;9.100;2023-05-07T13:36:35;3.13;;;2.28;;
78290;SDS011;67543;45.494;9.100;2023-05-07T13:39:02;1.90;;;1.67;;
78290;SDS011;67543;45.494;9.100;2023-05-07T13:41:28;3.10;;;1.85;;
78290;SDS011;67543;45.494;9.100;2023-05-07T13:43:55;3.58;;;2.10;;
78290;SDS011;67543;45.494;9.100;2023-05-07T13:46:22;3.08;;;1.60;;
78290;SDS011;67543;45.494;9.100;2023-05-07T13:48:54;1.98;;;1.77;;
78290;SDS011;67543;45.494;9.100;2023-05-07T13:51:26;2.40;;;2.20;;
78290;SDS011;67543;45.494;9.100;2023-05-07T13:54:04;1.75;;;1.65;;
78290;SDS011;67543;45.494;9.100;2023-05-07T13:56:36;4.03;;;1.88;;
78290;SDS011;67543;45.494;9.100;2023-05-07T13:59:07;2.65;;;1.90;;
78290;SDS011;67543;45.494;9.100;2023-05-07T14:01:37;2.83;;;1.67;;
78290;SDS011;67543;45.494;9.100;2023-05-07T14:04:08;2.50;;;1.67;;
78290;SDS011;67543;45.494;9.100;2023-05-07T14:06:37;2.30;;;1.90;;
78290;SDS011;67543;45.494;9.100;2023-05-07T14:09:09;3.08;;;1.88;;
78290;SDS011;67543;45.494;9.100;2023-05-07T14:11:40;2.20;;;2.00;;
78290;SDS011;67543;45.494;9.100;2023-05-07T14:14:11;2.13;;;1.35;;
78290;SDS011;67543;45.494;9.100;2023-05-07T14:16:41;1.92;;;1.60;;
78290;SDS011;67543;45.494;9.100;2023-05-07T14:19:12;2.28;;;2.05;;
78290;SDS011;67543;45.494;9.100;2023-05-07T14:21:43;4.22;;;1.85;;
78290;SDS011;67543;45.494;9.100;2023-05-07T14:24:14;1.98;;;1.63;;
78290;SDS011;67543;45.494;9.100;2023-05-07T14:26:46;2.10;;;1.90;;
78290;SDS011;67543;45.494;9.100;2023-05-07T14:29:11;2.35;;;1.88;;
78290;SDS011;67543;45.494;9.100;2023-05-07T14:31:37;3.53;;;1.80;;
78290;SDS011;67543;45.494;9.100;2023-05-07T14:34:04;3.85;;;1.65;;
78290;SDS011;67543;45.494;9.100;2023-05-07T14:36:30;1.90;;;1.58;;
78290;SDS011;67543;45.494;9.100;2023-05-07T14:38:56;2.47;;;2.20;;
78290;SDS011;67543;45.494;9.100;2023-05-07T14:41:24;4.95;;;2.08;;
78290;SDS011;67543;45.494;9.100;2023-05-07T14:43:49;2.20;;;1.70;;
78290;SDS011;67543;45.494;9.100;2023-05-07T14:46:18;3.65;;;1.70;;
78290;SDS011;67543;45.494;9.100;2023-05-07T14:48:44;2.83;;;1.70;;
78290;SDS011;67543;45.494;9.100;2023-05-07T14:51:11;4.55;;;2.60;;
78290;SDS011;67543;45.494;9.100;2023-05-07T14:53:36;2.63;;;1.70;;
78290;SDS011;67543;45.494;9.100;2023-05-07T14:56:02;2.30;;;1.80;;
78290;SDS011;67543;45.494;9.100;2023-05-07T14:58:28;3.20;;;1.60;;
78290;SDS011;67543;45.494;9.100;2023-05-07T15:00:53;1.73;;;1.23;;
78290;SDS011;67543;45.494;9.100;2023-05-07T15:03:18;4.72;;;1.60;;
78290;SDS011;67543;45.494;9.100;2023-05-07T15:05:44;2.35;;;1.50;;
78290;SDS011;67543;45.494;9.100;2023-05-07T15:08:09;3.40;;;1.67;;
78290;SDS011;67543;45.494;9.100;2023-05-07T15:10:35;3.22;;;1.77;;
78290;SDS011;67543;45.494;9.100;2023-05-07T15:13:05;1.85;;;1.67;;
78290;SDS011;67543;45.494;9.100;2023-05-07T15:15:31;2.33;;;1.55;;
78290;SDS011;67543;45.494;9.100;2023-05-07T15:17:56;3.03;;;2.33;;
78290;SDS011;67543;45.494;9.100;2023-05-07T15:20:22;2.03;;;1.90;;
78290;SDS011;67543;45.494;9.100;2023-05-07T15:22:47;1.95;;;1.83;;
78290;SDS011;67543;45.494;9.100;2023-05-07T15:25:13;2.03;;;1.77;;
78290;SDS011;67543;45.494;9.100;2023-05-07T15:27:38;4.35;;;1.85;;
78290;SDS011;67543;45.494;9.100;2023-05-07T15:30:04;3.63;;;2.00;;
78290;SDS011;67543;45.494;9.100;2023-05-07T15:32:30;2.08;;;1.88;;
78290;SDS011;67543;45.494;9.100;2023-05-07T15:34:55;3.95;;;1.63;;
78290;SDS011;67543;45.494;9.100;2023-05-07T15:37:21;5.78;;;2.60;;
78290;SDS011;67543;45.494;9.100;2023-05-07T15:39:46;1.67;;;1.40;;
78290;SDS011;67543;45.494;9.100;2023-05-07T15:42:11;2.88;;;1.90;;
78290;SDS011;67543;45.494;9.100;2023-05-07T15:44:37;2.03;;;1.77;;
78290;SDS011;67543;45.494;9.100;2023-05-07T15:47:03;3.33;;;1.98;;
78290;SDS011;67543;45.494;9.100;2023-05-07T15:49:28;2.72;;;1.70;;
78290;SDS011;67543;45.494;9.100;2023-05-07T15:51:53;2.85;;;1.70;;
78290;SDS011;67543;45.494;9.100;2023-05-07T15:54:19;2.53;;;1.88;;
78290;SDS011;67543;45.494;9.100;2023-05-07T15:56:45;2.17;;;1.75;;
78290;SDS011;67543;45.494;9.100;2023-05-07T15:59:11;2.85;;;1.85;;
78290;SDS011;67543;45.494;9.100;2023-05-07T16:01:37;2.53;;;1.80;;
78290;SDS011;67543;45.494;9.100;2023-05-07T16:04:02;2.10;;;1.90;;
78290;SDS011;67543;45.494;9.100;2023-05-07T16:06:28;1.50;;;1.40;;
78290;SDS011;67543;45.494;9.100;2023-05-07T16:08:53;3.20;;;1.90;;
78290;SDS011;67543;45.494;9.100;2023-05-07T16:11:20;2.67;;;1.70;;
78290;SDS011;67543;45.494;9.100;2023-05-07T16:13:51;4.40;;;2.00;;
78290;SDS011;67543;45.494;9.100;2023-05-07T16:16:17;1.85;;;1.45;;
78290;SDS011;67543;45.494;9.100;2023-05-07T16:18:42;2.78;;;1.73;;
78290;SDS011;67543;45.494;9.100;2023-05-07T16:21:07;2.15;;;1.88;;
78290;SDS011;67543;45.494;9.100;2023-05-07T16:23:33;2.53;;;2.00;;
78290;SDS011;67543;45.494;9.100;2023-05-07T16:25:58;2.97;;;1.95;;
78290;SDS011;67543;45.494;9.100;2023-05-07T16:28:23;1.98;;;1.85;;
78290;SDS011;67543;45.494;9.100;2023-05-07T16:30:49;2.25;;;2.05;;
78290;SDS011;67543;45.494;9.100;2023-05-07T16:33:14;2.63;;;1.77;;
78290;SDS011;67543;45.494;9.100;2023-05-07T16:35:39;3.25;;;2.17;;
78290;SDS011;67543;45.494;9.100;2023-05-07T16:38:05;2.03;;;1.77;;
78290;SDS011;67543;45.494;9.100;2023-05-07T16:40:37;2.55;;;1.85;;
78290;SDS011;67543;45.494;9.100;2023-05-07T16:43:03;2.92;;;2.50;;
78290;SDS011;67543;45.494;9.100;2023-05-07T16:45:29;2.35;;;2.15;;
78290;SDS011;67543;45.494;9.100;2023-05-07T16:47:55;3.10;;;2.00;;
78290;SDS011;67543;45.494;9.100;2023-05-07T16:50:22;2.53;;;2.00;;
78290;SDS011;67543;45.494;9.100;2023-05-07T16:52:48;3.00;;;2.30;;
78290;SDS011;67543;45.494;9.100;2023-05-07T16:55:13;3.92;;;3.03;;
78290;SDS011;67543;45.494;9.100;2023-05-07T16:57:38;4.15;;;2.40;;
78290;SDS011;67543;45.494;9.100;2023-05-07T17:00:04;3.78;;;2.70;;
78290;SDS011;67543;45.494;9.100;2023-05-07T17:02:31;3.05;;;2.42;;
78290;SDS011;67543;45.494;9.100;2023-05-07T17:04:57;2.42;;;2.20;;
78290;SDS011;67543;45.494;9.100;2023-05-07T17:07:24;2.85;;;2.42;;
78290;SDS011;67543;45.494;9.100;2023-05-07T17:09:50;3.88;;;2.10;;
78290;SDS011;67543;45.494;9.100;2023-05-07T17:12:16;3.15;;;2.00;;
78290;SDS011;67543;45.494;9.100;2023-05-07T17:14:41;4.63;;;3.35;;
78290;SDS011;67543;45.494;9.100;2023-05-07T17:17:06;3.88;;;2.60;;
78290;SDS011;67543;45.494;9.100;2023-05-07T17:19:32;3.58;;;2.30;;
78290;SDS011;67543;45.494;9.100;2023-05-07T17:21:59;8.25;;;6.78;;
78290;SDS011;67543;45.494;9.100;2023-05-07T17:24:24;6.43;;;3.55;;
78290;SDS011;67543;45.494;9.100;2023-05-07T17:26:50;3.05;;;2.70;;
78290;SDS011;67543;45.494;9.100;2023-05-07T17:29:15;3.75;;;2.40;;
78290;SDS011;67543;45.494;9.100;2023-05-07T17:31:40;2.22;;;2.03;;
78290;SDS011;67543;45.494;9.100;2023-05-07T17:34:06;4.68;;;2.83;;
78290;SDS011;67543;45.494;9.100;2023-05-07T17:36:31;3.30;;;2.38;;
78290;SDS011;67543;45.494;9.100;2023-05-07T17:38:57;2.95;;;2.55;;
78290;SDS011;67543;45.494;9.100;2023-05-07T17:41:22;4.85;;;2.80;;
78290;SDS011;67543;45.494;9.100;2023-05-07T17:43:47;6.07;;;2.70;;
78290;SDS011;67543;45.494;9.100;2023-05-07T17:46:13;3.58;;;2.50;;
78290;SDS011;67543;45.494;9.100;2023-05-07T17:48:38;3.13;;;2.60;;
78290;SDS011;67543;45.494;9.100;2023-05-07T17:51:03;3.08;;;2.42;;
78290;SDS011;67543;45.494;9.100;2023-05-07T17:53:29;4.63;;;2.92;;
78290;SDS011;67543;45.494;9.100;2023-05-07T17:55:57;3.08;;;2.60;;
78290;SDS011;67543;45.494;9.100;2023-05-07T17:58:22;3.30;;;2.92;;
78290;SDS011;67543;45.494;9.100;2023-05-07T18:00:49;2.60;;;2.28;;
78290;SDS011;67543;45.494;9.100;2023-05-07T18:03:15;4.40;;;2.70;;
78290;SDS011;67543;45.494;9.100;2023-05-07T18:05:41;4.50;;;2.72;;
78290;SDS011;67543;45.494;9.100;2023-05-07T18:08:06;3.33;;;2.17;;
78290;SDS011;67543;45.494;9.100;2023-05-07T18:10:31;3.72;;;2.78;;
78290;SDS011;67543;45.494;9.100;2023-05-07T18:12:57;3.45;;;2.45;;
78290;SDS011;67543;45.494;9.100;2023-05-07T18:15:22;3.30;;;3.00;;
78290;SDS011;67543;45.494;9.100;2023-05-07T18:17:47;3.92;;;2.45;;
78290;SDS011;67543;45.494;9.100;2023-05-07T18:20:13;3.70;;;3.00;;
78290;SDS011;67543;45.494;9.100;2023-05-07T18:22:38;3.88;;;3.10;;
78290;SDS011;67543;45.494;9.100;2023-05-07T18:25:04;3.03;;;2.75;;
78290;SDS011;67543;45.494;9.100;2023-05-07T18:27:30;3.65;;;2.80;;
78290;SDS011;67543;45.494;9.100;2023-05-07T18:29:55;8.55;;;2.95;;
78290;SDS011;67543;45.494;9.100;2023-05-07T18:32:21;3.80;;;2.78;;
78290;SDS011;67543;45.494;9.100;2023-05-07T18:34:47;4.13;;;2.72;;
78290;SDS011;67543;45.494;9.100;2023-05-07T18:37:14;3.35;;;2.60;;
78290;SDS011;67543;45.494;9.100;2023-05-07T18:39:40;2.60;;;1.90;;
78290;SDS011;67543;45.494;9.100;2023-05-07T18:42:08;2.83;;;1.90;;
78290;SDS011;67543;45.494;9.100;2023-05-07T18:44:34;3.20;;;1.60;;
78290;SDS011;67543;45.494;9.100;2023-05-07T18:47:03;4.18;;;1.67;;
78290;SDS011;67543;45.494;9.100;2023-05-07T18:49:32;2.17;;;1.30;;
78290;SDS011;67543;45.494;9.100;2023-05-07T18:51:57;2.70;;;1.30;;
78290;SDS011;67543;45.494;9.100;2023-05-07T18:54:23;3.35;;;1.10;;
78290;SDS011;67543;45.494;9.100;2023-05-07T18:56:48;3.90;;;1.40;;
78290;SDS011;67543;45.494;9.100;2023-05-07T18:59:14;10.45;;;1.35;;
78290;SDS011;67543;45.494;9.100;2023-05-07T19:01:39;4.28;;;1.40;;
78290;SDS011;67543;45.494;9.100;2023-05-07T19:04:05;3.67;;;1.23;;
78290;SDS011;67543;45.494;9.100;2023-05-07T19:06:30;2.13;;;1.50;;
78290;SDS011;67543;45.494;9.100;2023-05-07T19:08:56;4.65;;;1.30;;
78290;SDS011;67543;45.494;9.100;2023-05-07T19:11:22;3.72;;;1.88;;
78290;SDS011;67543;45.494;9.100;2023-05-07T19:13:47;2.60;;;1.00;;
78290;SDS011;67543;45.494;9.100;2023-05-07T19:16:13;4.20;;;1.48;;
78290;SDS011;67543;45.494;9.100;2023-05-07T19:18:39;3.65;;;1.35;;
78290;SDS011;67543;45.494;9.100;2023-05-07T19:21:05;1.60;;;1.10;;
78290;SDS011;67543;45.494;9.100;2023-05-07T19:23:31;5.90;;;3.03;;
78290;SDS011;67543;45.494;9.100;2023-05-07T19:25:56;4.53;;;2.92;;
78290;SDS011;67543;45.494;9.100;2023-05-07T19:28:22;2.67;;;1.30;;
78290;SDS011;67543;45.494;9.100;2023-05-07T19:30:47;1.70;;;0.93;;
78290;SDS011;67543;45.494;9.100;2023-05-07T19:33:14;2.20;;;1.50;;
78290;SDS011;67543;45.494;9.100;2023-05-07T19:35:39;2.10;;;1.20;;
78290;SDS011;67543;45.494;9.100;2023-05-07T19:38:05;2.35;;;1.50;;
78290;SDS011;67543;45.494;9.100;2023-05-07T19:40:32;2.90;;;1.70;;
78290;SDS011;67543;45.494;9.100;2023-05-07T19:42:57;4.20;;;2.10;;
78290;SDS011;67543;45.494;9.100;2023-05-07T19:45:22;1.90;;;1.42;;
78290;SDS011;67543;45.494;9.100;2023-05-07T19:47:48;1.85;;;1.30;;
78290;SDS011;67543;45.494;9.100;2023-05-07T19:50:13;2.55;;;1.50;;
78290;SDS011;67543;45.494;9.100;2023-05-07T19:52:39;2.83;;;1.70;;
78290;SDS011;67543;45.494;9.100;2023-05-07T19:55:05;3.17;;;1.58;;
78290;SDS011;67543;45.494;9.100;2023-05-07T19:57:31;2.50;;;1.60;;
78290;SDS011;67543;45.494;9.100;2023-05-07T19:59:56;2.83;;;1.70;;
78290;SDS011;67543;45.494;9.100;2023-05-07T20:02:22;2.72;;;1.70;;
78290;SDS011;67543;45.494;9.100;2023-05-07T20:04:51;4.50;;;1.80;;
78290;SDS011;67543;45.494;9.100;2023-05-07T20:07:19;2.50;;;1.73;;
78290;SDS011;67543;45.494;9.100;2023-05-07T20:09:44;2.65;;;1.75;;
78290;SDS011;67543;45.494;9.100;2023-05-07T20:12:09;3.13;;;2.83;;
78290;SDS011;67543;45.494;9.100;2023-05-07T20:14:35;4.15;;;2.40;;
78290;SDS011;67543;45.494;9.100;2023-05-07T20:17:00;3.35;;;2.10;;
78290;SDS011;67543;45.494;9.100;2023-05-07T20:19:27;2.90;;;2.28;;
78290;SDS011;67543;45.494;9.100;2023-05-07T20:21:55;4.63;;;2.90;;
78290;SDS011;67543;45.494;9.100;2023-05-07T20:24:20;11.73;;;6.30;;